Time;durP1;ratioP1;P1;durP2;ratioP2;P2;SDS_P1;SDS_P2;PMS_P1;PMS_P2;Temp;Humidity;BMP_temperature;BMP_pressure;BME280_temperature;BME280_humidity;BME280_pressure;Samples;Min_cycle;Max_cycle;Signal;HPM_P1;HPM_P2
2023/12/04 00:00:18;;;;;;;14.40;6.18;;;-3274.30;98.10;;;;;;5010326;28;20038;-73
2023/12/04 00:02:44;;;;;;;12.40;5.07;;;-3274.20;98.10;;;;;;5013008;28;20125;-73
2023/12/04 00:05:09;;;;;;;14.70;5.88;;;-3274.30;98.30;;;;;;5005969;28;20072;-72
2023/12/04 00:07:35;;;;;;;16.80;6.80;;;-3274.30;98.20;;;;;;5012773;28;20040;-72
2023/12/04 00:10:00;;;;;;;15.35;6.20;;;-3274.20;98.10;;;;;;5011307;28;20403;-72
2023/12/04 00:12:26;;;;;;;14.13;5.82;;;-3274.20;98.20;;;;;;5009595;28;20506;-72
2023/12/04 00:14:51;;;;;;;17.17;6.20;;;-3274.20;98.20;;;;;;5002728;28;20373;-73
2023/12/04 00:17:17;;;;;;;12.23;5.78;;;-3274.20;98.20;;;;;;5001264;28;20084;-73
2023/12/04 00:19:42;;;;;;;14.35;6.65;;;-3274.20;98.20;;;;;;5003773;28;20038;-72
2023/12/04 00:22:08;;;;;;;12.68;5.07;;;-3274.10;98.10;;;;;;5011451;28;20371;-73
2023/12/04 00:24:33;;;;;;;14.05;6.40;;;-3274.10;98.20;;;;;;5011599;28;20048;-72
2023/12/04 00:26:59;;;;;;;14.73;5.82;;;-3274.10;98.10;;;;;;5008488;28;20390;-73
2023/12/04 00:29:24;;;;;;;15.15;6.15;;;-3274.10;98.10;;;;;;5009382;28;20088;-72
2023/12/04 00:31:50;;;;;;;17.30;6.20;;;-3274.00;98.20;;;;;;5009102;28;20378;-73
2023/12/04 00:34:15;;;;;;;14.00;6.57;;;-3274.00;98.20;;;;;;5012388;28;20443;-72
2023/12/04 00:36:40;;;;;;;13.77;5.50;;;-3274.10;98.20;;;;;;5007485;28;20038;-73
2023/12/04 00:39:06;;;;;;;15.23;6.90;;;-3274.10;98.20;;;;;;5010132;28;20041;-73
2023/12/04 00:41:31;;;;;;;15.27;6.82;;;-3274.10;98.20;;;;;;5010450;28;20042;-72
2023/12/04 00:43:57;;;;;;;16.15;6.03;;;-3274.00;98.10;;;;;;5008193;28;20037;-73
2023/12/04 00:46:23;;;;;;;17.88;6.50;;;-3274.00;98.10;;;;;;5007950;28;20483;-73
2023/12/04 00:48:48;;;;;;;14.20;5.63;;;-3274.00;98.10;;;;;;5010911;28;20490;-72
2023/12/04 00:51:14;;;;;;;17.38;6.47;;;-3274.00;98.10;;;;;;5004157;28;20414;-72
2023/12/04 00:53:39;;;;;;;16.77;6.38;;;-3274.00;98.10;;;;;;5011160;28;20038;-72
2023/12/04 00:56:06;;;;;;;13.98;6.28;;;-3274.00;98.00;;;;;;5008803;28;20034;-72
2023/12/04 00:58:31;;;;;;;14.50;5.90;;;-3273.90;97.90;;;;;;5008599;28;20077;-72
2023/12/04 01:00:57;;;;;;;13.98;5.38;;;-3274.00;98.00;;;;;;5008124;28;20482;-72
2023/12/04 01:03:23;;;;;;;15.13;6.50;;;-3274.00;97.90;;;;;;5007936;28;20030;-72
2023/12/04 01:05:48;;;;;;;16.98;6.05;;;-3274.00;97.90;;;;;;5006088;28;20040;-73
2023/12/04 01:08:14;;;;;;;14.35;6.38;;;-3273.90;97.90;;;;;;5008940;28;20042;-73
2023/12/04 01:10:40;;;;;;;12.98;5.50;;;-3273.90;97.90;;;;;;5005689;28;20030;-72
2023/12/04 01:13:05;;;;;;;13.55;7.07;;;-3273.90;97.90;;;;;;5008768;28;20041;-73
2023/12/04 01:15:31;;;;;;;17.48;6.18;;;-3273.90;97.90;;;;;;5010885;28;20124;-73
2023/12/04 01:17:56;;;;;;;12.82;6.07;;;-3273.90;97.90;;;;;;5007421;28;20045;-73
2023/12/04 01:20:22;;;;;;;13.75;6.07;;;-3273.90;97.90;;;;;;5006885;28;20034;-72
2023/12/04 01:22:48;;;;;;;12.65;5.82;;;-3273.90;97.90;;;;;;5005698;28;20589;-73
2023/12/04 01:25:14;;;;;;;13.18;5.28;;;-3274.00;97.90;;;;;;5008366;28;20116;-72
2023/12/04 01:27:40;;;;;;;14.30;5.18;;;-3273.90;97.80;;;;;;5005865;28;20084;-73
2023/12/04 01:30:08;;;;;;;12.15;5.63;;;-3273.90;97.90;;;;;;5002025;28;20679;-73
2023/12/04 01:32:34;;;;;;;13.68;5.28;;;-3273.90;97.80;;;;;;5000573;28;20029;-73
2023/12/04 01:34:59;;;;;;;14.25;6.97;;;-3273.90;97.80;;;;;;5002921;28;20057;-73
2023/12/04 01:37:25;;;;;;;16.05;5.35;;;-3274.00;97.80;;;;;;5005708;28;20418;-73
2023/12/04 01:39:50;;;;;;;15.60;6.53;;;-3274.00;97.70;;;;;;5004976;28;20038;-73
2023/12/04 01:42:16;;;;;;;10.82;5.20;;;-3274.00;97.60;;;;;;5008380;28;20030;-72
2023/12/04 01:44:41;;;;;;;13.07;5.63;;;-3273.90;97.60;;;;;;5007294;28;20525;-73
2023/12/04 01:47:07;;;;;;;12.20;6.00;;;-3274.00;97.70;;;;;;5009521;28;20113;-73
2023/12/04 01:49:33;;;;;;;17.00;6.18;;;-3274.00;97.70;;;;;;5012016;28;20105;-73
2023/12/04 01:51:58;;;;;;;16.30;6.38;;;-3274.00;97.60;;;;;;5005017;28;20129;-73
2023/12/04 01:54:24;;;;;;;13.40;5.68;;;-3274.10;97.60;;;;;;5011595;28;20544;-73
2023/12/04 01:56:50;;;;;;;15.57;6.57;;;-3274.00;97.50;;;;;;5010527;28;20380;-73
2023/12/04 01:59:15;;;;;;;12.48;5.68;;;-3274.10;97.60;;;;;;5011922;28;20410;-72
2023/12/04 02:01:42;;;;;;;15.02;5.43;;;-3274.10;97.60;;;;;;5010093;28;20033;-73
2023/12/04 02:04:08;;;;;;;14.23;5.72;;;-3274.10;97.60;;;;;;5008788;28;20045;-73
2023/12/04 02:06:34;;;;;;;9.75;4.47;;;-3274.20;97.50;;;;;;5013777;28;20030;-73
2023/12/04 02:09:01;;;;;;;8.77;4.55;;;-3274.20;97.40;;;;;;5007291;28;20029;-73
2023/12/04 02:11:26;;;;;;;12.73;5.55;;;-3274.30;97.20;;;;;;5006811;28;20419;-73
2023/12/04 02:13:52;;;;;;;9.80;4.70;;;-3274.30;97.10;;;;;;5010291;28;20083;-73
2023/12/04 02:16:19;;;;;;;12.68;5.05;;;-3274.30;97.00;;;;;;5008737;28;20116;-73
2023/12/04 02:18:45;;;;;;;13.23;5.85;;;-3274.30;97.00;;;;;;5008033;28;20529;-73
2023/12/04 02:21:11;;;;;;;12.35;4.93;;;-3274.30;97.00;;;;;;5012695;28;20064;-73
2023/12/04 02:23:36;;;;;;;14.75;5.50;;;-3274.30;96.80;;;;;;5010782;28;20116;-72
2023/12/04 02:26:16;;;;;;;12.02;4.88;;;-3274.30;96.80;;;;;;5009926;28;20560;-73
2023/12/04 02:28:46;;;;;;;10.90;4.80;;;-3274.30;96.80;;;;;;5009146;28;20420;-73
2023/12/04 02:31:12;;;;;;;13.50;5.00;;;-3274.40;96.80;;;;;;5008654;28;20040;-73
2023/12/04 02:33:39;;;;;;;12.60;6.28;;;-3274.30;96.80;;;;;;5005181;28;20042;-73
2023/12/04 02:36:07;;;;;;;11.27;5.53;;;-3274.30;96.80;;;;;;5005588;28;20037;-73
2023/12/04 02:38:33;;;;;;;12.52;4.88;;;-3274.40;96.80;;;;;;5010589;28;20084;-73
2023/12/04 02:40:58;;;;;;;11.63;5.18;;;-3274.30;96.80;;;;;;5010802;28;20409;-73
2023/12/04 02:43:24;;;;;;;12.05;4.90;;;-3274.40;96.90;;;;;;5008982;28;20091;-73
2023/12/04 02:45:49;;;;;;;12.85;5.13;;;-3274.40;96.80;;;;;;5009112;28;20100;-73
2023/12/04 02:48:14;;;;;;;8.75;4.53;;;-3274.50;96.80;;;;;;5010137;28;20471;-73
2023/12/04 02:50:40;;;;;;;10.82;4.65;;;-3274.50;96.70;;;;;;5007289;28;20050;-73
2023/12/04 02:53:06;;;;;;;10.85;4.50;;;-3274.40;96.60;;;;;;5008985;28;20538;-73
2023/12/04 02:55:31;;;;;;;14.40;5.13;;;-3274.50;96.70;;;;;;5010704;28;20100;-73
2023/12/04 02:57:56;;;;;;;13.15;5.03;;;-3274.50;96.70;;;;;;5004003;28;20044;-73
2023/12/04 03:00:22;;;;;;;9.05;4.25;;;-3274.50;96.70;;;;;;5012227;28;20501;-73
2023/12/04 03:02:47;;;;;;;9.13;4.03;;;-3274.50;96.70;;;;;;5008223;28;20034;-73
2023/12/04 03:05:13;;;;;;;11.55;4.85;;;-3274.50;96.80;;;;;;5009427;28;20121;-73
2023/12/04 03:07:38;;;;;;;11.63;4.85;;;-3274.50;96.80;;;;;;5007497;28;20388;-73
2023/12/04 03:10:04;;;;;;;13.13;4.85;;;-3274.50;96.80;;;;;;5006123;28;20133;-73
2023/12/04 03:12:30;;;;;;;9.70;4.18;;;-3274.50;96.80;;;;;;5009173;28;20038;-73
2023/12/04 03:14:55;;;;;;;12.57;4.43;;;-3274.50;96.70;;;;;;5008878;28;20042;-73
2023/12/04 03:17:21;;;;;;;11.75;4.50;;;-3274.50;96.70;;;;;;5006639;28;20038;-73
2023/12/04 03:19:46;;;;;;;13.68;5.38;;;-3274.50;96.80;;;;;;5009496;28;20077;-73
2023/12/04 03:22:12;;;;;;;10.63;4.72;;;-3274.50;96.80;;;;;;5010136;28;20065;-73
2023/12/04 03:24:38;;;;;;;10.65;3.67;;;-3274.60;96.70;;;;;;5006271;28;20387;-73
2023/12/04 03:27:03;;;;;;;9.90;4.28;;;-3274.60;96.80;;;;;;5007694;28;20080;-73
2023/12/04 03:29:29;;;;;;;10.77;5.25;;;-3274.60;96.80;;;;;;5010242;28;21078;-73
2023/12/04 03:31:54;;;;;;;11.20;5.45;;;-3274.60;96.80;;;;;;5006880;28;20045;-73
2023/12/04 03:34:20;;;;;;;10.98;5.10;;;-3274.60;96.80;;;;;;5004405;28;20672;-73
2023/12/04 03:36:45;;;;;;;12.77;5.43;;;-3274.60;96.80;;;;;;5003944;28;20038;-73
2023/12/04 03:39:11;;;;;;;11.30;3.88;;;-3274.60;96.90;;;;;;5009935;28;20506;-73
2023/12/04 03:41:36;;;;;;;7.40;3.80;;;-3274.60;96.90;;;;;;5008728;28;20044;-73
2023/12/04 03:44:02;;;;;;;10.05;3.83;;;-3274.60;96.90;;;;;;5010089;28;20037;-73
2023/12/04 03:46:27;;;;;;;8.38;4.15;;;-3274.60;97.00;;;;;;5015622;28;20030;-73
2023/12/04 03:48:53;;;;;;;11.93;4.25;;;-3274.60;97.00;;;;;;5005157;28;20034;-73
2023/12/04 03:51:18;;;;;;;11.30;4.60;;;-3274.60;97.00;;;;;;5008518;28;20204;-73
2023/12/04 03:53:43;;;;;;;10.52;4.03;;;-3274.60;97.00;;;;;;5012724;28;20045;-73
2023/12/04 03:56:11;;;;;;;11.55;4.55;;;-3274.60;97.00;;;;;;5012919;28;20474;-73
2023/12/04 03:58:38;;;;;;;11.63;4.10;;;-3274.60;97.10;;;;;;5004017;28;20068;-73
2023/12/04 04:01:04;;;;;;;14.60;5.18;;;-3274.60;97.10;;;;;;5008547;28;20034;-73
2023/12/04 04:03:29;;;;;;;10.07;4.95;;;-3274.60;97.20;;;;;;5009564;28;20437;-73
2023/12/04 04:05:55;;;;;;;9.38;4.57;;;-3274.60;97.20;;;;;;5011827;28;20741;-73
2023/12/04 04:08:20;;;;;;;8.98;3.58;;;-3274.60;97.20;;;;;;5009570;28;20037;-73
2023/12/04 04:10:46;;;;;;;10.48;4.55;;;-3274.60;97.20;;;;;;5004446;28;20031;-73
2023/12/04 04:13:11;;;;;;;9.10;3.70;;;-3274.60;97.30;;;;;;5004567;28;20056;-73
2023/12/04 04:15:37;;;;;;;10.00;3.92;;;-3274.60;97.30;;;;;;5009242;28;20041;-73
2023/12/04 04:18:02;;;;;;;7.90;3.88;;;-3274.60;97.40;;;;;;5004769;28;20038;-73
2023/12/04 04:20:28;;;;;;;10.93;3.90;;;-3274.60;97.40;;;;;;5004215;28;20355;-73
2023/12/04 04:22:53;;;;;;;11.43;4.75;;;-3274.70;97.40;;;;;;5011305;28;20474;-73
2023/12/04 04:25:21;;;;;;;8.90;3.97;;;-3274.70;97.50;;;;;;5009933;28;20022;-73
2023/12/04 04:27:47;;;;;;;10.63;4.72;;;-3274.70;97.50;;;;;;5006819;28;20038;-73
2023/12/04 04:30:13;;;;;;;8.60;3.38;;;-3274.70;97.50;;;;;;5008504;28;20034;-73
2023/12/04 04:32:39;;;;;;;9.50;4.40;;;-3274.70;97.60;;;;;;5006532;28;20033;-73
2023/12/04 04:35:04;;;;;;;9.98;4.30;;;-3274.70;97.60;;;;;;5007096;28;20394;-73
2023/12/04 04:37:30;;;;;;;11.73;5.05;;;-3274.80;97.60;;;;;;5008396;28;20731;-73
2023/12/04 04:39:55;;;;;;;9.98;3.90;;;-3274.80;97.80;;;;;;5005789;28;20179;-73
2023/12/04 04:42:22;;;;;;;13.73;4.53;;;-3274.80;97.80;;;;;;5007196;28;20049;-73
2023/12/04 04:44:48;;;;;;;13.80;4.22;;;-3274.90;97.90;;;;;;5010092;28;20406;-73
2023/12/04 04:47:13;;;;;;;12.32;4.90;;;-3274.90;97.90;;;;;;5008348;28;20049;-73
2023/12/04 04:49:38;;;;;;;13.07;4.28;;;-3274.90;97.90;;;;;;5004701;28;20131;-73
2023/12/04 04:52:04;;;;;;;11.02;4.70;;;-3274.90;98.10;;;;;;5006361;28;20041;-73
2023/12/04 04:54:33;;;;;;;10.52;4.65;;;-3275.00;98.10;;;;;;5012437;28;20466;-73
2023/12/04 04:56:58;;;;;;;9.02;3.97;;;-3275.00;98.10;;;;;;5007504;28;20033;-73
2023/12/04 04:59:24;;;;;;;10.70;3.97;;;-3275.00;98.20;;;;;;5009466;28;20037;-73
2023/12/04 05:01:49;;;;;;;10.45;4.70;;;-3275.00;98.30;;;;;;5005088;28;20506;-72
2023/12/04 05:04:15;;;;;;;7.97;4.07;;;-3275.00;98.30;;;;;;5006707;28;20021;-73
2023/12/04 05:06:40;;;;;;;16.13;4.90;;;-3275.00;98.40;;;;;;5008727;28;20037;-72
2023/12/04 05:09:06;;;;;;;11.57;4.78;;;-3275.10;98.40;;;;;;5006005;28;20034;-73
2023/12/04 05:11:31;;;;;;;9.50;4.40;;;-3275.10;98.50;;;;;;5008559;28;20045;-73
2023/12/04 05:13:57;;;;;;;11.45;4.85;;;-3275.10;98.50;;;;;;5007716;28;20033;-72
2023/12/04 05:16:22;;;;;;;10.27;3.35;;;-3275.10;98.60;;;;;;5004620;28;20029;-73
2023/12/04 05:18:48;;;;;;;7.22;3.67;;;-3275.10;98.70;;;;;;5002748;28;20431;-73
2023/12/04 05:21:13;;;;;;;8.68;3.78;;;-3275.20;98.70;;;;;;5006518;28;20096;-72
2023/12/04 05:23:39;;;;;;;10.00;4.30;;;-3275.20;98.80;;;;;;5007210;28;20022;-72
2023/12/04 05:26:06;;;;;;;12.45;4.43;;;-3275.20;98.80;;;;;;5004475;28;20390;-70
2023/12/04 05:28:31;;;;;;;6.25;3.08;;;-3275.20;98.80;;;;;;5009140;28;20133;-69
2023/12/04 05:30:57;;;;;;;8.57;3.60;;;-3275.30;98.90;;;;;;5007242;28;20110;-70
2023/12/04 05:33:22;;;;;;;9.10;3.67;;;-3275.30;98.90;;;;;;5004882;28;20030;-70
2023/12/04 05:35:48;;;;;;;9.50;4.05;;;-3275.30;99.00;;;;;;5008806;28;20026;-70
2023/12/04 05:38:14;;;;;;;9.30;4.07;;;-3275.30;99.00;;;;;;5013583;28;20046;-70
2023/12/04 05:40:39;;;;;;;7.10;3.22;;;-3275.30;99.00;;;;;;5010884;28;20037;-70
2023/12/04 05:43:05;;;;;;;8.05;3.58;;;-3275.40;99.00;;;;;;5007703;28;20034;-70
2023/12/04 05:45:30;;;;;;;8.18;3.75;;;-3275.40;99.00;;;;;;5010274;28;20084;-70
2023/12/04 05:47:56;;;;;;;8.65;3.70;;;-3275.40;99.10;;;;;;5006624;28;20064;-70
2023/12/04 05:50:21;;;;;;;9.93;3.92;;;-3275.40;99.10;;;;;;5007319;28;20042;-70
2023/12/04 05:52:47;;;;;;;8.48;3.83;;;-3275.40;99.10;;;;;;5021998;28;20387;-70
2023/12/04 05:55:12;;;;;;;11.00;3.60;;;-3275.50;99.20;;;;;;5010997;28;20042;-70
2023/12/04 05:57:39;;;;;;;9.15;4.72;;;-3275.50;99.20;;;;;;5004488;28;20133;-70
2023/12/04 06:00:12;;;;;;;7.07;3.28;;;-3275.50;99.20;;;;;;5003161;28;20482;-70
2023/12/04 06:02:41;;;;;;;7.55;3.45;;;-3275.50;99.30;;;;;;4999925;28;20025;-70
2023/12/04 06:05:07;;;;;;;5.60;3.28;;;-3275.50;99.30;;;;;;5007137;28;20122;-71
2023/12/04 06:07:33;;;;;;;7.72;3.67;;;-3275.50;99.30;;;;;;5009213;28;20029;-70
2023/12/04 06:09:59;;;;;;;8.88;3.95;;;-3275.60;99.30;;;;;;5006909;28;20111;-70
2023/12/04 06:12:24;;;;;;;8.48;3.40;;;-3275.60;99.40;;;;;;5007838;28;23478;-70
2023/12/04 06:14:50;;;;;;;7.65;3.53;;;-3275.60;99.30;;;;;;5012176;28;20037;-70
2023/12/04 06:17:16;;;;;;;6.82;3.20;;;-3275.60;99.40;;;;;;5006133;28;20060;-70
2023/12/04 06:19:41;;;;;;;6.55;3.17;;;-3275.60;99.40;;;;;;5006343;28;20030;-70
2023/12/04 06:22:07;;;;;;;6.82;3.38;;;-3275.60;99.30;;;;;;5006861;28;20026;-70
2023/12/04 06:24:33;;;;;;;6.00;2.78;;;-3275.60;99.30;;;;;;5008832;28;20437;-70
2023/12/04 06:26:58;;;;;;;5.95;3.20;;;-3275.70;99.30;;;;;;5003720;28;20474;-70
2023/12/04 06:29:24;;;;;;;8.43;3.15;;;-3275.70;99.30;;;;;;5007225;28;20029;-70
2023/12/04 06:31:50;;;;;;;5.22;2.65;;;-3275.70;99.30;;;;;;5009300;28;20124;-70
2023/12/04 06:34:16;;;;;;;6.72;3.03;;;-3275.70;99.20;;;;;;5009953;28;20029;-70
2023/12/04 06:36:42;;;;;;;5.15;2.90;;;-3275.70;99.20;;;;;;5008426;28;20474;-72
2023/12/04 06:39:11;;;;;;;5.65;2.58;;;-3275.70;99.20;;;;;;5019388;28;20033;-71
2023/12/04 06:41:39;;;;;;;7.55;2.85;;;-3275.80;99.20;;;;;;5011223;28;20049;-71
2023/12/04 06:44:05;;;;;;;5.25;2.38;;;-3275.80;99.10;;;;;;5010998;28;20061;-71
2023/12/04 06:46:31;;;;;;;6.57;3.30;;;-3275.80;99.10;;;;;;5011821;28;20434;-72
2023/12/04 06:49:00;;;;;;;6.03;2.80;;;-3275.80;98.90;;;;;;5008983;28;20125;-74
2023/12/04 06:51:25;;;;;;;8.85;3.45;;;-3275.80;98.90;;;;;;5011878;28;20133;-68
2023/12/04 06:53:51;;;;;;;7.80;3.30;;;-3275.80;98.90;;;;;;5013537;28;20117;-69
2023/12/04 06:56:16;;;;;;;6.00;2.78;;;-3275.80;98.80;;;;;;5013478;28;20045;-69
2023/12/04 06:58:43;;;;;;;7.47;3.30;;;-3275.90;98.90;;;;;;5011420;28;20429;-68
2023/12/04 07:01:09;;;;;;;7.45;3.35;;;-3275.80;98.80;;;;;;5004690;28;20109;-70
2023/12/04 07:03:34;;;;;;;6.78;3.08;;;-3275.90;98.80;;;;;;5007034;28;20113;-70
2023/12/04 07:06:00;;;;;;;5.75;3.22;;;-3275.90;98.90;;;;;;5003042;28;20034;-70
2023/12/04 07:08:25;;;;;;;6.85;2.85;;;-3275.90;98.90;;;;;;5008305;28;20022;-70
2023/12/04 07:10:51;;;;;;;7.95;2.80;;;-3275.90;98.90;;;;;;5009997;28;20034;-70
2023/12/04 07:13:16;;;;;;;6.57;3.28;;;-3275.90;98.90;;;;;;5010120;28;20120;-68
2023/12/04 07:15:42;;;;;;;6.88;3.53;;;-3275.90;98.80;;;;;;5014812;28;20121;-69
2023/12/04 07:18:08;;;;;;;5.88;2.95;;;-3276.00;98.80;;;;;;5010040;28;20394;-69
2023/12/04 07:20:33;;;;;;;6.93;2.92;;;-3275.90;98.80;;;;;;5011763;28;20044;-68
2023/12/04 07:22:59;;;;;;;5.93;3.00;;;-3276.00;98.80;;;;;;5012641;28;20026;-68
2023/12/04 07:25:25;;;;;;;8.10;3.45;;;-3276.00;98.80;;;;;;5007711;28;20498;-69
2023/12/04 07:27:51;;;;;;;8.27;3.65;;;-3276.00;98.70;;;;;;5003662;28;20117;-69
2023/12/04 07:30:16;;;;;;;6.07;3.03;;;-3276.00;98.70;;;;;;5008874;28;20026;-68
2023/12/04 07:32:42;;;;;;;5.53;2.53;;;-3276.00;98.70;;;;;;5006627;28;20022;-68
2023/12/04 07:35:08;;;;;;;6.80;3.28;;;-3276.00;98.60;;;;;;5012700;28;20088;-68
2023/12/04 07:37:33;;;;;;;9.05;3.35;;;-3276.00;98.50;;;;;;5013061;28;20553;-69
2023/12/04 07:39:59;;;;;;;6.57;3.25;;;-3276.10;98.50;;;;;;5013454;28;20336;-69
2023/12/04 07:42:25;;;;;;;6.90;3.08;;;-3276.10;98.50;;;;;;5009202;28;20056;-69
2023/12/04 07:44:50;;;;;;;5.63;2.58;;;-3276.10;98.50;;;;;;5010930;28;20121;-68
2023/12/04 07:47:16;;;;;;;6.68;2.90;;;-3276.10;98.50;;;;;;5019455;28;20041;-68
2023/12/04 07:49:43;;;;;;;6.90;3.00;;;-3276.10;98.30;;;;;;5012031;28;20033;-68
2023/12/04 07:52:09;;;;;;;6.40;2.70;;;-3276.10;98.40;;;;;;5010732;28;20080;-68
2023/12/04 07:54:34;;;;;;;8.18;3.45;;;-3276.20;98.40;;;;;;5011524;28;20034;-68
2023/12/04 07:57:00;;;;;;;6.45;2.65;;;-3276.10;98.40;;;;;;5003105;28;20030;-68
2023/12/04 07:59:25;;;;;;;7.25;3.10;;;-3276.10;98.30;;;;;;5006739;28;20422;-68
2023/12/04 08:01:51;;;;;;;7.07;3.40;;;-3276.10;98.30;;;;;;5013039;28;20029;-69
2023/12/04 08:04:17;;;;;;;8.55;3.40;;;-3276.10;98.40;;;;;;5013384;28;20116;-69
2023/12/04 08:06:42;;;;;;;5.40;2.85;;;-3276.20;98.40;;;;;;5010779;28;20436;-69
2023/12/04 08:09:10;;;;;;;6.05;3.20;;;-3276.20;98.40;;;;;;5012173;28;20080;-69
2023/12/04 08:11:36;;;;;;;5.15;2.88;;;-3276.30;98.40;;;;;;5008572;28;20300;-69
2023/12/04 08:14:02;;;;;;;7.80;3.30;;;-3276.20;98.20;;;;;;5009736;28;20095;-69
2023/12/04 08:16:28;;;;;;;5.72;2.50;;;-3276.30;98.20;;;;;;5001963;28;20034;-69
2023/12/04 08:18:54;;;;;;;7.50;3.38;;;-3276.30;98.10;;;;;;5004574;28;20519;-68
2023/12/04 08:21:20;;;;;;;8.73;3.17;;;-3276.30;98.00;;;;;;5012447;28;20064;-68
2023/12/04 08:23:45;;;;;;;6.35;2.40;;;-3276.40;98.00;;;;;;5005152;28;20027;-68
2023/12/04 08:26:11;;;;;;;6.30;3.15;;;-3276.30;97.80;;;;;;5007255;28;20029;-68
2023/12/04 08:28:41;;;;;;;7.63;3.55;;;-3276.40;97.90;;;;;;5009906;28;20033;-69
2023/12/04 08:31:09;;;;;;;6.25;3.42;;;-3276.30;97.80;;;;;;5003932;28;20033;-69
2023/12/04 08:33:35;;;;;;;6.15;2.58;;;-3276.30;97.80;;;;;;5003126;28;20474;-69
2023/12/04 08:36:01;;;;;;;5.55;3.40;;;-3276.40;97.80;;;;;;5014795;28;20095;-68
2023/12/04 08:38:26;;;;;;;6.15;3.42;;;-3276.40;97.80;;;;;;5011157;28;20065;-69
2023/12/04 08:40:53;;;;;;;5.00;2.63;;;-3276.30;97.50;;;;;;5010527;28;20410;-69
2023/12/04 08:43:19;;;;;;;7.72;4.00;;;-3276.40;97.60;;;;;;5008948;28;20042;-69
2023/12/04 08:45:45;;;;;;;5.10;2.80;;;-3276.50;97.60;;;;;;5008345;28;20442;-69
2023/12/04 08:48:11;;;;;;;8.27;3.75;;;-3276.50;97.50;;;;;;5007658;28;20462;-68
2023/12/04 08:50:39;;;;;;;8.52;4.15;;;-3276.60;97.30;;;;;;5007724;28;20100;-69
2023/12/04 08:53:05;;;;;;;6.22;3.20;;;-3276.60;97.10;;;;;;5009100;28;20033;-71
2023/12/04 08:55:31;;;;;;;6.70;3.35;;;-3276.70;97.00;;;;;;5009403;28;20032;-69
2023/12/04 08:57:56;;;;;;;7.75;3.15;;;-3276.60;96.80;;;;;;5008820;28;20076;-69
2023/12/04 09:00:22;;;;;;;6.13;3.08;;;-3276.60;96.80;;;;;;5010600;28;20422;-68
2023/12/04 09:02:48;;;;;;;7.57;3.38;;;-3276.60;96.70;;;;;;5008556;28;20030;-69
2023/12/04 09:05:14;;;;;;;6.70;3.35;;;-3276.60;96.40;;;;;;5004010;28;20391;-69
2023/12/04 09:07:39;;;;;;;5.22;3.08;;;-3276.70;96.50;;;;;;5007129;28;20025;-69
2023/12/04 09:10:05;;;;;;;6.95;2.92;;;-3276.70;96.00;;;;;;5008763;28;20060;-69
2023/12/04 09:12:31;;;;;;;5.68;2.45;;;0.00;96.20;;;;;;5010453;28;20022;-70
2023/12/04 09:14:56;;;;;;;5.88;3.22;;;0.00;96.00;;;;;;5008751;28;20076;-70
2023/12/04 09:17:22;;;;;;;5.95;2.78;;;-3276.70;95.50;;;;;;5006130;28;20399;-70
2023/12/04 09:19:47;;;;;;;7.05;3.67;;;0.00;95.70;;;;;;5010599;28;20387;-70
2023/12/04 09:22:13;;;;;;;6.18;3.13;;;0.10;95.80;;;;;;5009087;28;20041;-69
2023/12/04 09:24:38;;;;;;;7.45;3.25;;;0.10;95.40;;;;;;5004543;28;20026;-70
2023/12/04 09:27:06;;;;;;;5.03;2.60;;;0.10;94.70;;;;;;5007658;28;20041;-70
2023/12/04 09:29:32;;;;;;;8.32;3.35;;;0.20;94.90;;;;;;5010490;28;20459;-69
2023/12/04 09:31:58;;;;;;;8.73;3.55;;;0.30;94.80;;;;;;5004968;28;20026;-70
2023/12/04 09:34:23;;;;;;;7.30;3.55;;;0.20;93.70;;;;;;5001614;28;20034;-70
2023/12/04 09:36:49;;;;;;;7.57;3.15;;;0.20;93.60;;;;;;5011240;28;20042;-70
2023/12/04 09:39:14;;;;;;;8.93;3.53;;;0.20;93.50;;;;;;5010672;28;20045;-70
2023/12/04 09:41:42;;;;;;;7.03;3.70;;;0.30;93.90;;;;;;5006522;28;20133;-70
2023/12/04 09:44:08;;;;;;;9.95;4.20;;;0.40;94.00;;;;;;5008263;28;20107;-70
2023/12/04 09:46:34;;;;;;;7.38;3.08;;;0.30;93.50;;;;;;5010813;28;20100;-70
2023/12/04 09:49:01;;;;;;;6.72;3.10;;;0.40;93.60;;;;;;5001914;28;20030;-70
2023/12/04 09:51:27;;;;;;;7.30;3.83;;;0.40;93.20;;;;;;5000242;28;20565;-70
2023/12/04 09:53:55;;;;;;;7.25;3.35;;;0.40;93.40;;;;;;5010616;28;20026;-69
2023/12/04 09:56:21;;;;;;;5.88;2.78;;;0.40;93.10;;;;;;5006648;28;20061;-70
2023/12/04 09:58:52;;;;;;;6.22;3.55;;;0.40;93.00;;;;;;5010079;28;20076;-71
2023/12/04 10:01:18;;;;;;;;;;;0.30;93.00;;;;;;5008194;28;20119;-72
2023/12/04 10:03:44;;;;;;;7.57;3.22;;;0.40;92.90;;;;;;5008643;28;19918;-71
2023/12/04 10:06:15;;;;;;;9.35;3.88;;;0.30;92.60;;;;;;5009893;28;20033;-73
2023/12/04 10:08:40;;;;;;;7.95;3.70;;;0.30;92.90;;;;;;5017914;28;20021;-72
2023/12/04 10:11:05;;;;;;;8.18;3.63;;;0.30;92.70;;;;;;5011626;28;20036;-72
2023/12/04 10:13:31;;;;;;;8.25;3.08;;;0.30;92.70;;;;;;5009791;28;20034;-72
2023/12/04 10:15:57;;;;;;;6.78;3.42;;;0.30;92.40;;;;;;5010190;28;20128;-72
2023/12/04 10:18:27;;;;;;;10.27;4.13;;;0.40;92.50;;;;;;5004563;28;20030;-70
2023/12/04 10:20:54;;;;;;;6.13;3.03;;;0.30;92.30;;;;;;5006332;28;20029;-72
2023/12/04 10:23:20;;;;;;;6.75;3.17;;;0.30;92.20;;;;;;5007636;28;20104;-72
2023/12/04 10:25:49;;;;;;;6.78;2.63;;;0.40;92.10;;;;;;5009479;28;20422;-73
2023/12/04 10:28:15;;;;;;;7.63;3.05;;;0.50;92.30;;;;;;5030609;28;20037;-74
2023/12/04 10:30:41;;;;;;;8.20;3.15;;;0.50;91.70;;;;;;5014933;28;20076;-73
2023/12/04 10:33:08;;;;;;;7.53;2.92;;;0.50;91.60;;;;;;5018964;28;20029;-74
2023/12/04 10:35:38;;;;;;;7.00;3.15;;;0.50;91.50;;;;;;5012885;28;20025;-71
2023/12/04 10:38:07;;;;;;;6.32;3.13;;;0.50;91.50;;;;;;5015256;28;20029;-71
2023/12/04 10:40:35;;;;;;;5.70;2.50;;;0.60;91.60;;;;;;5014863;28;20386;-70
2023/12/04 10:43:16;;;;;;;6.82;3.55;;;0.70;91.80;;;;;;5020245;28;20066;-71
2023/12/04 10:45:45;;;;;;;5.32;3.15;;;0.70;91.20;;;;;;5007336;28;20049;-71
2023/12/04 10:48:11;;;;;;;6.13;2.97;;;0.60;91.10;;;;;;5010756;28;20029;-72
2023/12/04 10:50:39;;;;;;;7.63;3.28;;;0.60;91.30;;;;;;5012909;28;20054;-72
2023/12/04 10:53:09;;;;;;;6.40;3.25;;;0.50;91.00;;;;;;5024172;28;20437;-71
2023/12/04 10:55:35;;;;;;;4.90;2.60;;;0.40;91.00;;;;;;5010762;28;20467;-70
2023/12/04 10:58:27;;;;;;;6.22;3.25;;;0.50;91.70;;;;;;5007280;28;20391;-71
2023/12/04 11:00:54;;;;;;;4.78;2.35;;;0.50;91.60;;;;;;5005784;28;20103;-71
2023/12/04 11:03:32;;;;;;;6.88;3.00;;;0.50;91.70;;;;;;5005899;28;20081;-71
2023/12/04 11:06:04;;;;;;;7.20;3.50;;;0.60;91.70;;;;;;5027764;28;20034;-71
2023/12/04 11:08:33;;;;;;;6.88;3.15;;;0.60;91.70;;;;;;5013925;28;20044;-71
2023/12/04 11:11:09;;;;;;;6.50;2.90;;;0.60;91.70;;;;;;5009966;28;20041;-71
2023/12/04 11:13:40;;;;;;;6.15;2.92;;;0.50;91.60;;;;;;5010043;28;20064;-70
2023/12/04 11:16:14;;;;;;;6.82;3.47;;;0.50;91.30;;;;;;5010307;28;20103;-70
2023/12/04 11:18:43;;;;;;;5.45;3.00;;;0.60;92.00;;;;;;5004306;28;20371;-72
2023/12/04 11:21:10;;;;;;;7.25;3.28;;;0.50;91.10;;;;;;5026216;28;20410;-72
2023/12/04 11:23:37;;;;;;;5.15;2.63;;;0.50;91.70;;;;;;5012754;28;20022;-72
2023/12/04 11:26:05;;;;;;;6.53;3.03;;;0.50;91.90;;;;;;5012828;28;20108;-72
2023/12/04 11:28:32;;;;;;;6.35;2.58;;;0.50;91.70;;;;;;5011259;28;20339;-72
2023/12/04 11:30:59;;;;;;;7.45;3.63;;;0.60;91.80;;;;;;5008689;28;20478;-73
2023/12/04 11:33:24;;;;;;;6.63;2.95;;;0.60;91.80;;;;;;5015515;28;20029;-72
2023/12/04 11:35:50;;;;;;;6.68;2.75;;;0.60;91.60;;;;;;5015105;28;20033;-72
2023/12/04 11:38:17;;;;;;;5.82;2.85;;;0.70;91.90;;;;;;5012796;28;20024;-72
2023/12/04 11:40:43;;;;;;;8.60;3.35;;;0.60;91.40;;;;;;5009308;28;20108;-72
2023/12/04 11:43:29;;;;;;;5.53;2.40;;;0.60;91.50;;;;;;5010297;28;20431;-72
2023/12/04 11:46:10;;;;;;;6.50;3.13;;;0.60;91.90;;;;;;5011960;28;20026;-72
2023/12/04 11:48:39;;;;;;;6.65;3.25;;;0.60;91.80;;;;;;5021167;28;20454;-72
2023/12/04 11:51:08;;;;;;;7.47;2.53;;;0.70;92.00;;;;;;5012636;28;20091;-72
2023/12/04 11:53:38;;;;;;;5.88;2.75;;;0.70;91.70;;;;;;5010069;28;20018;-72
2023/12/04 11:56:11;;;;;;;;;;;0.70;91.80;;;;;;5012559;28;20041;-72
2023/12/04 11:58:44;;;;;;;6.95;2.97;;;0.80;91.80;;;;;;5008432;28;19971;-72
2023/12/04 12:01:10;;;;;;;5.45;2.60;;;0.80;91.90;;;;;;5007472;28;20037;-72
2023/12/04 12:03:36;;;;;;;6.82;2.72;;;0.80;91.90;;;;;;5009703;28;20573;-72
2023/12/04 12:06:03;;;;;;;6.30;3.25;;;0.80;91.60;;;;;;5009853;28;20417;-72
2023/12/04 12:08:29;;;;;;;7.88;3.28;;;0.90;91.10;;;;;;5014878;28;20025;-73
2023/12/04 12:10:55;;;;;;;5.95;2.42;;;0.90;91.60;;;;;;5005274;28;20490;-72
2023/12/04 12:13:21;;;;;;;6.45;3.10;;;0.90;91.40;;;;;;5012300;28;20408;-72
2023/12/04 12:15:50;;;;;;;5.78;2.88;;;0.90;90.90;;;;;;5010350;28;20041;-76
2023/12/04 12:18:16;;;;;;;5.72;2.53;;;0.90;91.40;;;;;;5003820;28;20026;-74